createdAt,value
2022-09-23T00:00:12.850Z,8.80
2022-09-23T00:02:40.776Z,8.90
2022-09-23T00:05:07.911Z,8.80
2022-09-23T00:07:34.645Z,8.90
2022-09-23T00:10:01.433Z,8.90
2022-09-23T00:12:28.139Z,8.90
2022-09-23T00:14:54.967Z,8.90
2022-09-23T00:17:21.672Z,8.90
2022-09-23T00:19:48.815Z,8.90
2022-09-23T00:22:16.147Z,8.90
2022-09-23T00:24:42.865Z,8.90
2022-09-23T00:27:09.884Z,8.90
2022-09-23T00:29:37.116Z,8.90
2022-09-23T00:32:04.068Z,8.90
2022-09-23T00:34:31.034Z,8.90
2022-09-23T00:36:57.813Z,8.90
2022-09-23T00:39:26.021Z,9.00
2022-09-23T00:41:52.784Z,9.00
2022-09-23T00:44:38.410Z,9.00
2022-09-23T00:47:05.182Z,9.00
2022-09-23T00:49:31.920Z,9.00
2022-09-23T00:52:02.479Z,9.00
2022-09-23T00:54:30.347Z,9.10
2022-09-23T00:56:57.701Z,9.00
2022-09-23T00:59:26.133Z,9.10
2022-09-23T01:01:54.865Z,9.10
2022-09-23T01:04:26.073Z,9.10
2022-09-23T01:06:52.893Z,9.10
2022-09-23T01:09:20.224Z,9.10
2022-09-23T01:11:47.025Z,9.10
2022-09-23T01:14:19.881Z,9.10
2022-09-23T01:17:01.529Z,9.10
2022-09-23T01:19:28.356Z,9.10
2022-09-23T01:22:13.786Z,9.10
2022-09-23T01:24:48.994Z,9.10
2022-09-23T01:27:22.157Z,9.10
2022-09-23T01:30:03.244Z,9.10
2022-09-23T01:32:41.041Z,9.10
2022-09-23T01:35:07.857Z,9.10
2022-09-23T01:37:57.919Z,9.10
2022-09-23T01:40:36.947Z,9.10
2022-09-23T01:43:09.549Z,9.10
2022-09-23T01:45:40.101Z,9.10
2022-09-23T01:48:10.453Z,9.10
2022-09-23T01:50:56.907Z,9.10
2022-09-23T01:53:26.956Z,9.10
2022-09-23T01:55:58.989Z,9.00
2022-09-23T01:58:33.380Z,9.00
2022-09-23T02:01:06.309Z,9.00
2022-09-23T02:03:33.468Z,9.00
2022-09-23T02:06:05.855Z,9.00
2022-09-23T02:08:32.556Z,9.00
2022-09-23T02:11:08.322Z,9.00
2022-09-23T02:13:53.785Z,9.00
2022-09-23T02:16:22.419Z,9.00
2022-09-23T02:19:09.777Z,9.00
2022-09-23T02:21:40.475Z,9.00
2022-09-23T02:24:10.305Z,9.00
2022-09-23T02:26:49.770Z,9.00
2022-09-23T02:29:21.712Z,9.00
2022-09-23T02:31:54.866Z,9.00
2022-09-23T02:34:27.686Z,9.10
2022-09-23T02:37:13.079Z,9.10
2022-09-23T02:39:46.534Z,9.10
2022-09-23T02:42:15.442Z,9.10
2022-09-23T02:44:42.647Z,9.10
2022-09-23T02:47:10.614Z,9.10
2022-09-23T02:49:37.506Z,9.10
2022-09-23T02:52:05.666Z,9.20
2022-09-23T02:54:35.983Z,9.20
2022-09-23T02:57:05.484Z,9.20
2022-09-23T02:59:32.653Z,9.10
2022-09-23T03:02:20.885Z,9.10
2022-09-23T03:05:03.881Z,9.20
2022-09-23T03:07:40.227Z,9.20
2022-09-23T03:10:16.311Z,9.20
2022-09-23T03:12:43.110Z,9.30
2022-09-23T03:15:19.297Z,9.30
2022-09-23T03:17:51.986Z,9.40
2022-09-23T03:20:39.346Z,9.40
2022-09-23T03:23:08.603Z,9.40
2022-09-23T03:25:37.160Z,9.50
2022-09-23T03:28:04.707Z,9.60
2022-09-23T03:30:35.413Z,9.80
2022-09-23T03:33:04.235Z,9.80
2022-09-23T03:35:32.593Z,9.90
2022-09-23T03:37:59.360Z,10.10
2022-09-23T03:40:34.012Z,10.20
2022-09-23T03:43:02.575Z,10.40
2022-09-23T03:45:33.101Z,10.40
2022-09-23T03:48:00.666Z,10.60
2022-09-23T03:50:27.580Z,10.70
2022-09-23T03:52:55.683Z,10.90
2022-09-23T03:55:22.653Z,10.90
2022-09-23T03:57:49.389Z,10.90
2022-09-23T04:00:16.111Z,10.90
2022-09-23T04:02:42.994Z,10.90
2022-09-23T04:05:10.195Z,10.90
2022-09-23T04:07:37.020Z,10.90
2022-09-23T04:10:05.029Z,10.90
2022-09-23T04:12:31.774Z,11.00
2022-09-23T04:14:58.501Z,11.00
2022-09-23T04:17:25.246Z,11.00
2022-09-23T04:19:51.938Z,11.10
2022-09-23T04:22:18.779Z,11.20
2022-09-23T04:24:45.485Z,11.30
2022-09-23T04:27:12.181Z,11.30
2022-09-23T04:29:38.952Z,11.40
2022-09-23T04:32:05.691Z,11.40
2022-09-23T04:34:32.509Z,11.40
2022-09-23T04:36:59.269Z,11.40
2022-09-23T04:39:26.629Z,11.40
2022-09-23T04:41:53.396Z,11.40
2022-09-23T04:44:21.325Z,11.40
2022-09-23T04:46:48.293Z,11.40
2022-09-23T04:49:15.930Z,11.40
2022-09-23T04:51:43.640Z,11.30
2022-09-23T04:54:11.895Z,11.30
2022-09-23T04:56:39.838Z,11.30
2022-09-23T04:59:07.097Z,11.30
2022-09-23T05:01:34.650Z,11.40
2022-09-23T05:04:03.115Z,11.30
2022-09-23T05:06:31.434Z,11.30
2022-09-23T05:08:58.952Z,11.30
2022-09-23T05:11:26.252Z,11.40
2022-09-23T05:13:53.826Z,11.40
2022-09-23T05:16:22.641Z,11.40
2022-09-23T05:18:50.196Z,11.40
2022-09-23T05:21:19.701Z,11.40
2022-09-23T05:23:54.213Z,11.50
2022-09-23T05:26:21.825Z,11.50
2022-09-23T05:28:48.659Z,11.60
2022-09-23T05:31:19.920Z,11.80
2022-09-23T05:33:54.172Z,11.90
2022-09-23T05:36:21.855Z,12.00
2022-09-23T05:38:49.948Z,12.10
2022-09-23T05:41:17.847Z,12.20
2022-09-23T05:43:45.069Z,12.30
2022-09-23T05:46:16.174Z,12.40
2022-09-23T05:48:43.915Z,12.40
2022-09-23T05:51:13.048Z,12.40
2022-09-23T05:53:40.625Z,12.50
2022-09-23T05:56:07.893Z,12.50
2022-09-23T05:58:35.541Z,12.50
2022-09-23T06:01:08.415Z,12.60
2022-09-23T06:03:35.350Z,12.60
2022-09-23T06:06:02.053Z,12.70
2022-09-23T06:08:28.771Z,12.70
2022-09-23T06:10:56.204Z,12.70
2022-09-23T06:13:22.917Z,12.80
2022-09-23T06:15:50.356Z,12.80
2022-09-23T06:18:17.314Z,12.80
2022-09-23T06:20:44.058Z,12.80
2022-09-23T06:23:11.192Z,12.80
2022-09-23T06:25:40.877Z,12.80
2022-09-23T06:28:11.551Z,12.80
2022-09-23T06:30:39.652Z,12.80
2022-09-23T06:33:06.371Z,12.80
2022-09-23T06:35:33.311Z,12.80
2022-09-23T06:38:03.139Z,12.90
2022-09-23T06:40:29.893Z,12.90
2022-09-23T06:42:58.487Z,13.00
2022-09-23T06:45:25.322Z,12.90
2022-09-23T06:47:58.741Z,12.90
2022-09-23T06:50:26.121Z,12.90
2022-09-23T06:52:56.507Z,12.90
2022-09-23T06:55:24.439Z,12.90
2022-09-23T06:57:51.196Z,12.90
2022-09-23T07:00:18.218Z,12.90
2022-09-23T07:02:45.193Z,13.00
2022-09-23T07:05:12.120Z,13.00
2022-09-23T07:07:39.433Z,12.90
2022-09-23T07:10:06.678Z,12.90
2022-09-23T07:12:33.594Z,13.00
2022-09-23T07:15:00.310Z,13.00
2022-09-23T07:17:27.110Z,13.00
2022-09-23T07:19:55.021Z,13.10
2022-09-23T07:22:22.150Z,13.10
2022-09-23T07:24:48.886Z,13.20
2022-09-23T07:27:20.051Z,13.20
2022-09-23T07:29:50.355Z,13.30
2022-09-23T07:32:17.402Z,13.30
2022-09-23T07:34:44.518Z,13.40
2022-09-23T07:37:11.245Z,13.40
2022-09-23T07:39:39.759Z,13.50
2022-09-23T07:42:06.574Z,13.50
2022-09-23T07:44:33.550Z,13.50
2022-09-23T07:47:00.446Z,13.60
2022-09-23T07:49:27.585Z,13.60
2022-09-23T07:51:54.413Z,13.60
2022-09-23T07:54:21.540Z,13.60
2022-09-23T07:56:48.233Z,13.70
2022-09-23T07:59:18.304Z,13.70
2022-09-23T08:01:48.211Z,13.70
2022-09-23T08:04:17.778Z,13.70
2022-09-23T08:06:46.098Z,13.70
2022-09-23T08:09:13.020Z,13.80
2022-09-23T08:11:42.047Z,13.80
2022-09-23T08:14:13.529Z,13.90
2022-09-23T08:16:40.599Z,13.90
2022-09-23T08:19:08.207Z,13.90
2022-09-23T08:21:35.085Z,13.90
2022-09-23T08:24:01.943Z,13.80
2022-09-23T08:26:28.699Z,13.90
2022-09-23T08:28:56.588Z,13.90
2022-09-23T08:31:23.760Z,13.90
2022-09-23T08:33:54.631Z,14.00
2022-09-23T08:36:21.391Z,14.00
2022-09-23T08:38:48.349Z,14.10
2022-09-23T08:41:15.079Z,14.10
2022-09-23T08:43:45.460Z,14.10
2022-09-23T08:46:13.076Z,14.20
2022-09-23T08:48:43.902Z,14.20
2022-09-23T08:51:30.861Z,14.20
2022-09-23T08:53:58.289Z,14.20
2022-09-23T08:56:25.086Z,14.20
2022-09-23T08:58:55.306Z,14.20
2022-09-23T09:01:25.311Z,14.20
2022-09-23T09:03:54.065Z,14.20
2022-09-23T09:06:24.245Z,14.20
2022-09-23T09:08:54.456Z,14.20
2022-09-23T09:11:23.457Z,14.20
2022-09-23T09:14:01.674Z,14.30
2022-09-23T09:17:01.766Z,14.30
2022-09-23T09:19:47.489Z,14.30
2022-09-23T09:22:19.309Z,14.30
2022-09-23T09:24:48.790Z,14.40
2022-09-23T09:27:15.589Z,14.50
2022-09-23T09:29:46.220Z,14.50
2022-09-23T09:32:14.318Z,14.60
2022-09-23T09:34:45.946Z,14.70
2022-09-23T09:37:20.541Z,14.70
2022-09-23T09:39:47.243Z,14.80
2022-09-23T09:42:18.592Z,14.90
2022-09-23T09:44:58.530Z,14.90
2022-09-23T09:47:34.351Z,14.80
2022-09-23T09:50:06.453Z,14.80
2022-09-23T09:52:33.304Z,14.70
2022-09-23T09:55:12.023Z,14.70
2022-09-23T09:57:48.044Z,14.70
2022-09-23T10:00:25.823Z,14.70
2022-09-23T10:02:59.087Z,14.70
2022-09-23T10:05:27.477Z,14.70
2022-09-23T10:07:54.629Z,14.80
2022-09-23T10:10:33.286Z,14.90
2022-09-23T10:13:13.433Z,14.90
2022-09-23T10:15:44.883Z,15.00
2022-09-23T10:18:26.811Z,14.90
2022-09-23T10:20:59.563Z,15.00
2022-09-23T10:23:27.990Z,15.00
2022-09-23T10:26:00.166Z,15.00
2022-09-23T10:28:46.276Z,15.00
2022-09-23T10:31:14.449Z,15.00
2022-09-23T10:33:42.358Z,15.10
2022-09-23T10:36:09.821Z,15.10
2022-09-23T10:38:36.686Z,15.20
2022-09-23T10:41:23.904Z,15.10
2022-09-23T10:44:11.710Z,15.10
2022-09-23T10:46:41.688Z,15.10
2022-09-23T10:49:27.707Z,15.10
2022-09-23T10:52:22.239Z,15.10
2022-09-23T10:55:07.866Z,14.90
2022-09-23T10:57:41.686Z,14.80
2022-09-23T11:00:16.609Z,14.90
2022-09-23T11:03:02.829Z,14.90
2022-09-23T11:05:38.829Z,15.00
2022-09-23T11:08:05.550Z,15.20
2022-09-23T11:10:45.922Z,15.20
2022-09-23T11:13:25.324Z,15.30
2022-09-23T11:15:52.097Z,15.30
2022-09-23T11:18:21.618Z,15.40
2022-09-23T11:20:57.862Z,15.30
2022-09-23T11:23:24.711Z,15.30
2022-09-23T11:26:09.700Z,15.20
2022-09-23T11:28:36.388Z,15.30
2022-09-23T11:31:14.914Z,15.30
2022-09-23T11:33:48.910Z,15.40
2022-09-23T11:36:21.981Z,15.40
2022-09-23T11:38:50.027Z,15.40
2022-09-23T11:41:19.661Z,15.40
2022-09-23T11:43:51.315Z,15.50
2022-09-23T11:46:24.306Z,15.50
2022-09-23T11:48:54.009Z,15.70
2022-09-23T11:51:24.680Z,15.70
2022-09-23T11:53:57.723Z,15.60
2022-09-23T11:56:36.239Z,15.70
2022-09-23T11:59:04.005Z,15.70
2022-09-23T12:01:37.712Z,15.60
2022-09-23T12:04:20.443Z,15.50
2022-09-23T12:07:14.732Z,15.40
2022-09-23T12:09:59.842Z,15.40
2022-09-23T12:12:35.395Z,15.30
2022-09-23T12:15:02.109Z,15.20
2022-09-23T12:17:44.155Z,15.40
2022-09-23T12:20:13.767Z,15.50
2022-09-23T12:23:18.837Z,15.40
2022-09-23T12:25:48.445Z,15.40
2022-09-23T12:28:18.358Z,15.60
2022-09-23T12:30:45.952Z,15.60
2022-09-23T12:33:32.399Z,15.50
2022-09-23T12:36:04.960Z,15.50
2022-09-23T12:38:38.667Z,15.40
2022-09-23T12:41:24.058Z,15.50
2022-09-23T12:43:55.267Z,15.40
2022-09-23T12:46:27.413Z,15.40
2022-09-23T12:49:00.623Z,15.60
2022-09-23T12:51:29.074Z,15.60
2022-09-23T12:53:58.655Z,15.60
2022-09-23T12:56:27.671Z,15.60
2022-09-23T12:59:02.514Z,15.60
2022-09-23T13:01:35.282Z,15.60
2022-09-23T13:04:20.644Z,15.60
2022-09-23T13:06:58.810Z,15.70
2022-09-23T13:09:30.134Z,15.80
2022-09-23T13:12:05.938Z,15.80
2022-09-23T13:14:33.132Z,15.80
2022-09-23T13:17:00.068Z,15.70
2022-09-23T13:19:26.855Z,15.80
2022-09-23T13:21:53.864Z,15.80
2022-09-23T13:24:24.987Z,15.90
2022-09-23T13:27:10.497Z,15.90
2022-09-23T13:29:43.598Z,16.00
2022-09-23T13:32:15.117Z,15.90
2022-09-23T13:34:44.306Z,15.90
2022-09-23T13:37:13.756Z,15.90
2022-09-23T13:39:40.736Z,15.80
2022-09-23T13:42:10.394Z,15.80
2022-09-23T13:44:40.200Z,15.90
2022-09-23T13:47:12.327Z,15.90
2022-09-23T13:49:39.675Z,16.00
2022-09-23T13:52:21.749Z,16.10
2022-09-23T13:54:49.353Z,16.10
2022-09-23T13:57:27.073Z,16.10
2022-09-23T13:59:53.903Z,16.10
2022-09-23T14:02:20.760Z,16.30
2022-09-23T14:04:47.623Z,16.30
2022-09-23T14:07:15.837Z,16.40
2022-09-23T14:09:44.124Z,16.50
2022-09-23T14:12:11.091Z,16.70
2022-09-23T14:14:39.374Z,16.90
2022-09-23T14:17:07.419Z,16.80
2022-09-23T14:19:35.315Z,16.60
2022-09-23T14:22:02.510Z,16.60
2022-09-23T14:24:29.249Z,16.50
2022-09-23T14:27:08.265Z,16.50
2022-09-23T14:29:35.017Z,16.40
2022-09-23T14:32:04.394Z,16.30
2022-09-23T14:34:40.143Z,16.20
2022-09-23T14:37:34.578Z,16.20
2022-09-23T14:40:01.629Z,16.00
2022-09-23T14:42:29.880Z,15.90
2022-09-23T14:44:56.742Z,15.60
2022-09-23T14:47:25.029Z,15.50
2022-09-23T14:50:10.574Z,15.40
2022-09-23T14:52:37.575Z,15.30
2022-09-23T14:55:04.509Z,15.20
2022-09-23T14:57:31.946Z,15.20
2022-09-23T15:00:00.314Z,15.20
2022-09-23T15:02:31.201Z,15.10
2022-09-23T15:05:08.745Z,15.10
2022-09-23T15:07:37.076Z,14.90
2022-09-23T15:10:06.891Z,14.90
2022-09-23T15:12:33.685Z,14.80
2022-09-23T15:15:00.570Z,14.80
2022-09-23T15:17:33.425Z,14.80
2022-09-23T15:20:01.871Z,14.70
2022-09-23T15:22:28.641Z,14.70
2022-09-23T15:25:08.239Z,14.60
2022-09-23T15:27:35.269Z,14.60
2022-09-23T15:30:14.738Z,14.60
2022-09-23T15:32:42.404Z,14.50
2022-09-23T15:35:15.885Z,14.50
2022-09-23T15:37:43.378Z,14.40
2022-09-23T15:40:21.004Z,14.40
2022-09-23T15:42:51.560Z,14.30
2022-09-23T15:45:22.497Z,14.20
2022-09-23T15:47:50.476Z,14.20
2022-09-23T15:50:17.445Z,14.20
2022-09-23T15:52:44.958Z,14.10
2022-09-23T15:55:15.693Z,14.10
2022-09-23T15:57:42.433Z,14.00
2022-09-23T16:00:12.328Z,14.00
2022-09-23T16:02:39.886Z,14.00
2022-09-23T16:05:07.715Z,13.90
2022-09-23T16:07:34.447Z,13.80
2022-09-23T16:10:01.148Z,13.80
2022-09-23T16:12:27.963Z,13.70
2022-09-23T16:14:54.680Z,13.60
2022-09-23T16:17:21.455Z,13.60
2022-09-23T16:19:48.164Z,13.50
2022-09-23T16:22:15.477Z,13.50
2022-09-23T16:24:42.276Z,13.40
2022-09-23T16:27:09.687Z,13.40
2022-09-23T16:29:36.448Z,13.30
2022-09-23T16:32:03.306Z,13.20
2022-09-23T16:34:30.119Z,13.10
2022-09-23T16:36:56.882Z,13.00
2022-09-23T16:39:23.955Z,12.90
2022-09-23T16:41:50.671Z,12.90
2022-09-23T16:44:17.445Z,12.80
2022-09-23T16:46:44.168Z,12.70
2022-09-23T16:49:14.041Z,12.60
2022-09-23T16:51:40.903Z,12.60
2022-09-23T16:54:10.311Z,12.50
2022-09-23T16:56:47.175Z,12.40
2022-09-23T16:59:14.573Z,12.30
2022-09-23T17:02:00.137Z,12.20
2022-09-23T17:04:27.716Z,12.20
2022-09-23T17:06:55.972Z,12.10
2022-09-23T17:09:24.781Z,12.10
2022-09-23T17:11:56.364Z,12.10
2022-09-23T17:14:23.179Z,12.10
2022-09-23T17:16:50.007Z,12.00
2022-09-23T17:19:16.814Z,12.00
2022-09-23T17:21:43.572Z,12.00
2022-09-23T17:24:10.341Z,11.90
2022-09-23T17:26:38.369Z,12.00
2022-09-23T17:29:05.619Z,11.90
2022-09-23T17:31:32.516Z,11.90
2022-09-23T17:33:59.319Z,11.90
2022-09-23T17:36:27.366Z,11.90
2022-09-23T17:38:54.214Z,11.90
2022-09-23T17:41:21.235Z,11.90
2022-09-23T17:43:48.089Z,11.90
2022-09-23T17:46:18.238Z,11.90
2022-09-23T17:48:45.514Z,11.90
2022-09-23T17:51:12.233Z,11.90
2022-09-23T17:53:40.008Z,11.90
2022-09-23T17:56:27.066Z,11.80
2022-09-23T17:58:53.794Z,11.80
2022-09-23T18:01:24.463Z,11.80
2022-09-23T18:03:55.114Z,11.80
2022-09-23T18:06:22.831Z,11.80
2022-09-23T18:08:50.459Z,11.70
2022-09-23T18:11:19.310Z,11.70
2022-09-23T18:13:50.587Z,11.70
2022-09-23T18:16:17.525Z,11.70
2022-09-23T18:18:44.680Z,11.60
2022-09-23T18:21:11.460Z,11.60
2022-09-23T18:23:38.209Z,11.60
2022-09-23T18:26:12.628Z,11.60
2022-09-23T18:28:39.831Z,11.50
2022-09-23T18:31:06.536Z,11.50
2022-09-23T18:33:33.359Z,11.50
2022-09-23T18:36:01.163Z,11.40
2022-09-23T18:38:27.900Z,11.30
2022-09-23T18:40:56.390Z,11.30
2022-09-23T18:43:25.812Z,11.30
2022-09-23T18:46:00.344Z,11.30
2022-09-23T18:48:46.631Z,11.20
2022-09-23T18:51:15.163Z,11.20
2022-09-23T18:53:42.182Z,11.10
2022-09-23T18:56:09.995Z,11.20
2022-09-23T18:58:36.804Z,11.20
2022-09-23T19:01:07.846Z,11.10
2022-09-23T19:03:35.256Z,11.10
2022-09-23T19:06:03.035Z,11.20
2022-09-23T19:08:29.814Z,11.20
2022-09-23T19:11:01.146Z,11.20
2022-09-23T19:13:28.141Z,11.10
2022-09-23T19:15:54.942Z,11.10
2022-09-23T19:18:21.799Z,11.10
2022-09-23T19:20:49.428Z,11.10
2022-09-23T19:23:16.200Z,11.10
2022-09-23T19:25:42.929Z,11.00
2022-09-23T19:28:09.659Z,11.00
2022-09-23T19:30:37.128Z,11.00
2022-09-23T19:33:04.105Z,11.00
2022-09-23T19:35:32.639Z,11.00
2022-09-23T19:37:59.564Z,10.90
2022-09-23T19:40:26.359Z,11.00
2022-09-23T19:42:56.062Z,10.90
2022-09-23T19:45:22.981Z,10.90
2022-09-23T19:47:56.700Z,10.90
2022-09-23T19:50:23.455Z,10.90
2022-09-23T19:52:53.124Z,10.90
2022-09-23T19:55:20.082Z,10.80
2022-09-23T19:57:47.303Z,10.80
2022-09-23T20:00:15.195Z,10.70
2022-09-23T20:02:43.238Z,10.70
2022-09-23T20:05:12.123Z,10.70
2022-09-23T20:07:39.605Z,10.70
2022-09-23T20:10:07.118Z,10.60
2022-09-23T20:12:34.324Z,10.70
2022-09-23T20:15:01.222Z,10.70
2022-09-23T20:17:27.961Z,10.60
2022-09-23T20:19:54.696Z,10.60
2022-09-23T20:22:33.231Z,10.60
2022-09-23T20:25:01.659Z,10.50
2022-09-23T20:27:31.509Z,10.50
2022-09-23T20:29:58.762Z,10.50
2022-09-23T20:32:26.508Z,10.50
2022-09-23T20:34:53.557Z,10.40
2022-09-23T20:37:21.066Z,10.40
2022-09-23T20:39:47.967Z,10.40
2022-09-23T20:42:16.358Z,10.40
2022-09-23T20:44:44.209Z,10.40
2022-09-23T20:47:14.554Z,10.30
2022-09-23T20:49:45.245Z,10.30
2022-09-23T20:52:12.956Z,10.30
2022-09-23T20:54:40.025Z,10.30
2022-09-23T20:57:06.850Z,10.30
2022-09-23T20:59:34.415Z,10.30
2022-09-23T21:02:01.687Z,10.30
2022-09-23T21:04:29.030Z,10.30
2022-09-23T21:06:59.419Z,10.30
2022-09-23T21:09:29.116Z,10.30
2022-09-23T21:11:55.909Z,10.30
2022-09-23T21:14:22.932Z,10.30
2022-09-23T21:16:50.469Z,10.20
2022-09-23T21:19:17.817Z,10.30
2022-09-23T21:21:44.697Z,10.30
2022-09-23T21:24:42.205Z,10.30
2022-09-23T21:26:58.452Z,10.30
2022-09-23T21:29:25.240Z,10.30
2022-09-23T21:31:52.102Z,10.30
2022-09-23T21:34:19.424Z,10.30
2022-09-23T21:36:48.050Z,10.30
2022-09-23T21:39:15.036Z,10.30
2022-09-23T21:41:42.245Z,10.30
2022-09-23T21:44:09.101Z,10.30
2022-09-23T21:46:36.413Z,10.30
2022-09-23T21:49:03.723Z,10.30
2022-09-23T21:51:37.736Z,10.40
2022-09-23T21:54:05.676Z,10.40
2022-09-23T21:56:35.235Z,10.40
2022-09-23T21:59:02.328Z,10.30
2022-09-23T22:01:36.420Z,10.30
2022-09-23T22:04:07.810Z,10.30
2022-09-23T22:06:36.330Z,10.30
2022-09-23T22:09:04.622Z,10.40
2022-09-23T22:11:51.519Z,10.30
2022-09-23T22:14:18.943Z,10.30
2022-09-23T22:16:45.695Z,10.30
2022-09-23T22:19:13.576Z,10.30
2022-09-23T22:21:41.714Z,10.30
2022-09-23T22:24:09.629Z,10.30
2022-09-23T22:26:45.395Z,10.30
2022-09-23T22:29:31.848Z,10.30
2022-09-23T22:32:17.845Z,10.30
2022-09-23T22:34:50.455Z,10.30
2022-09-23T22:37:20.056Z,10.30
2022-09-23T22:39:47.047Z,10.30
2022-09-23T22:42:14.238Z,10.30
2022-09-23T22:44:41.071Z,10.20
2022-09-23T22:47:09.257Z,10.20
2022-09-23T22:49:36.123Z,10.20
2022-09-23T22:52:04.105Z,10.20
2022-09-23T22:54:33.958Z,10.20
2022-09-23T22:57:03.302Z,10.20
2022-09-23T22:59:30.136Z,10.20
2022-09-23T23:01:57.550Z,10.20
2022-09-23T23:04:24.325Z,10.20
2022-09-23T23:06:51.479Z,10.20
2022-09-23T23:09:18.821Z,10.20
2022-09-23T23:11:45.888Z,10.10
2022-09-23T23:14:13.482Z,10.20
2022-09-23T23:16:40.410Z,10.10
2022-09-23T23:19:09.999Z,10.20
2022-09-23T23:21:36.939Z,10.20
2022-09-23T23:24:04.508Z,10.20
2022-09-23T23:26:32.547Z,10.20
2022-09-23T23:28:59.652Z,10.20
2022-09-23T23:31:27.678Z,10.20
2022-09-23T23:33:54.598Z,10.20
2022-09-23T23:36:22.219Z,10.20
2022-09-23T23:38:49.601Z,10.20
2022-09-23T23:41:17.243Z,10.20
2022-09-23T23:43:45.922Z,10.30
2022-09-23T23:46:13.929Z,10.30
2022-09-23T23:48:41.844Z,10.30
2022-09-23T23:51:08.911Z,10.30
2022-09-23T23:53:37.111Z,10.30
2022-09-23T23:56:04.976Z,10.30
2022-09-23T23:58:32.077Z,10.30
